Decoded Metar for LFLL (LYON ST. EXUPERY in FRANCE) (IATA:LYS) | Meteo·Mobile Aviation Weather
aviador You're here:

LFLL Decoded Metar

LYON ST. EXUPERY in FRANCE
Report Time2019-09-21 09:00:00
UTC Time2019-09-21 09:09:35
Flight Rules vfr VFR
Wind140° at 10 kt
W.Decomp.*RWY 18: 7.5 kt HW 6.6 kt LCW
Visibility9999 m
Phenomena:N/A
Clouds:N/A
Expected CloudBase > 4,400 ft AGL from Temp-Dew spread
CeilingNone
Temp22°C (ISA +9)
Dew Point11°C (50% RH)
AAT18.7°C
QNH1018 hPa
Density Alt1,795 ft
Elevation787 ft
Report Wrong Elevation
Raw Report
METAR LFLL 210900Z 14010KT CAVOK 22/11 Q1018 NOSIG=

Extra information for LFLL:More info

Metar Taf Metar & Taf Last 4 Metars F.Rules Stats Wind Profile Meteogram Temp Stats Airport Information Weather charts Add Link Nearby VenuesMetar ALERT Operation Metar Decoded Social comments